Time;durP1;ratioP1;P1;durP2;ratioP2;P2;SDS_P1;SDS_P2;PMS_P1;PMS_P2;Temp;Humidity;BMP_temperature;BMP_pressure;BME280_temperature;BME280_humidity;BME280_pressure;Samples;Min_cycle;Max_cycle;Signal;HPM_P1;HPM_P2
2023/09/01 00:00:04;;;;;;;4.18;2.00;;;17.70;99.90;;;;;;5061128;28;20688;-60
2023/09/01 00:02:30;;;;;;;3.92;2.17;;;17.70;99.90;;;;;;5061952;28;20407;-61
2023/09/01 00:04:57;;;;;;;3.75;1.92;;;17.80;99.90;;;;;;5059193;28;20236;-62
2023/09/01 00:07:24;;;;;;;4.40;2.30;;;17.70;99.90;;;;;;5058681;28;20652;-60
2023/09/01 00:09:51;;;;;;;4.22;2.28;;;17.60;99.90;;;;;;5059363;28;20213;-62
2023/09/01 00:12:17;;;;;;;3.65;2.05;;;17.50;99.90;;;;;;5059236;28;20220;-62
2023/09/01 00:14:46;;;;;;;4.90;2.45;;;17.40;99.90;;;;;;5058652;28;20233;-62
2023/09/01 00:17:13;;;;;;;5.95;2.50;;;17.40;99.90;;;;;;5058142;28;20209;-62
2023/09/01 00:19:40;;;;;;;4.32;2.03;;;17.60;99.90;;;;;;5058552;28;20212;-61
2023/09/01 00:22:07;;;;;;;5.47;2.30;;;17.30;99.90;;;;;;5058746;28;20217;-60
2023/09/01 00:24:34;;;;;;;6.03;2.50;;;17.30;99.90;;;;;;5052092;28;20595;-61
2023/09/01 00:27:02;;;;;;;6.60;2.50;;;17.20;99.90;;;;;;5051538;28;20209;-62
2023/09/01 00:29:33;;;;;;;6.80;2.30;;;17.20;99.90;;;;;;5051643;28;20210;-62
2023/09/01 00:32:01;;;;;;;5.70;2.33;;;17.10;99.90;;;;;;5051543;28;20289;-62
2023/09/01 00:34:31;;;;;;;3.40;2.38;;;17.10;99.90;;;;;;5051521;28;20275;-61
2023/09/01 00:36:58;;;;;;;4.70;2.20;;;17.10;99.90;;;;;;5051087;28;20213;-61
2023/09/01 00:39:24;;;;;;;5.03;2.10;;;17.10;99.90;;;;;;5051285;28;20209;-62
2023/09/01 00:41:51;;;;;;;6.05;2.17;;;17.10;99.90;;;;;;5051485;28;20209;-62
2023/09/01 00:44:18;;;;;;;4.05;2.60;;;17.10;99.90;;;;;;5051598;28;20302;-61
2023/09/01 00:46:46;;;;;;;6.32;2.47;;;17.10;99.90;;;;;;5051195;28;20205;-62
2023/09/01 00:49:18;;;;;;;5.57;2.40;;;17.00;99.90;;;;;;5051274;28;20296;-62
2023/09/01 00:51:46;;;;;;;4.65;2.28;;;17.10;99.90;;;;;;5051013;28;20218;-62
2023/09/01 00:54:14;;;;;;;4.25;2.05;;;17.10;99.90;;;;;;5051074;28;20260;-61
2023/09/01 00:56:42;;;;;;;4.57;2.40;;;17.10;99.90;;;;;;5050833;28;20209;-60
2023/09/01 00:59:09;;;;;;;5.80;2.33;;;17.10;99.90;;;;;;5051155;28;20228;-62
2023/09/01 01:01:37;;;;;;;6.20;2.55;;;17.10;99.90;;;;;;5051328;28;20206;-62
2023/09/01 01:04:07;;;;;;;5.90;2.33;;;17.20;99.90;;;;;;5050857;28;20229;-62
2023/09/01 01:06:43;;;;;;;2.92;2.45;;;17.20;99.90;;;;;;5050693;28;20216;-61
2023/09/01 01:09:17;;;;;;;4.68;2.22;;;17.20;99.90;;;;;;5051324;28;20300;-61
2023/09/01 01:11:50;;;;;;;5.95;2.33;;;17.20;99.90;;;;;;5051127;28;20583;-61
2023/09/01 01:14:23;;;;;;;4.13;2.08;;;17.10;99.90;;;;;;5051036;28;20232;-62
2023/09/01 01:16:52;;;;;;;5.65;2.75;;;17.00;99.90;;;;;;5050670;28;20212;-62
2023/09/01 01:19:38;;;;;;;5.95;2.40;;;17.00;99.90;;;;;;5053065;28;20216;-62
2023/09/01 01:22:08;;;;;;;4.55;2.33;;;16.90;99.90;;;;;;5054810;28;20205;-62
2023/09/01 01:24:36;;;;;;;10.70;2.63;;;17.00;99.90;;;;;;5054541;28;20230;-62
2023/09/01 01:27:03;;;;;;;4.95;2.42;;;17.10;99.90;;;;;;5054541;28;20209;-62
2023/09/01 01:29:30;;;;;;;5.40;2.55;;;17.10;99.90;;;;;;5054965;28;20561;-62
2023/09/01 01:31:59;;;;;;;4.05;2.58;;;17.20;99.90;;;;;;5054639;28;20252;-62
2023/09/01 01:34:34;;;;;;;3.55;2.22;;;17.30;99.90;;;;;;5054886;28;20218;-62
2023/09/01 01:37:09;;;;;;;3.30;2.33;;;17.40;99.90;;;;;;5054376;28;20205;-61
2023/09/01 01:39:39;;;;;;;5.85;2.70;;;17.50;99.90;;;;;;5054246;28;20259;-62
2023/09/01 01:42:10;;;;;;;4.82;2.25;;;17.60;99.90;;;;;;5054560;28;20208;-62
2023/09/01 01:44:43;;;;;;;3.10;2.03;;;17.60;99.90;;;;;;5054402;28;20303;-61
2023/09/01 01:47:11;;;;;;;4.18;2.13;;;17.70;99.90;;;;;;5053943;28;20213;-62
2023/09/01 01:49:37;;;;;;;3.97;2.45;;;17.70;99.90;;;;;;5054234;28;20700;-62
2023/09/01 01:52:05;;;;;;;5.15;2.25;;;17.70;99.90;;;;;;5054162;28;20228;-62
2023/09/01 01:54:32;;;;;;;4.00;2.00;;;17.80;99.90;;;;;;5076753;22;20249;-65
2023/09/01 01:57:00;;;;;;;2.33;1.77;;;17.80;99.90;;;;;;5053570;28;20201;-67
2023/09/01 01:59:27;;;;;;;4.70;1.88;;;17.80;99.90;;;;;;5053750;28;20692;-66
2023/09/01 02:01:54;;;;;;;3.05;1.73;;;17.90;99.90;;;;;;5053950;28;20206;-66
2023/09/01 02:04:21;;;;;;;2.90;1.75;;;17.90;99.90;;;;;;5053814;28;20229;-67
2023/09/01 02:06:47;;;;;;;4.10;1.88;;;18.00;99.90;;;;;;5053361;28;20697;-66
2023/09/01 02:09:15;;;;;;;3.83;1.58;;;18.00;99.90;;;;;;5053760;28;20296;-66
2023/09/01 02:11:42;;;;;;;5.25;1.67;;;18.10;99.90;;;;;;5053616;28;20575;-66
2023/09/01 02:14:10;;;;;;;3.83;1.83;;;18.20;99.90;;;;;;5053771;28;20233;-67
2023/09/01 02:16:37;;;;;;;2.88;1.77;;;18.20;99.90;;;;;;5053543;28;20309;-66
2023/09/01 02:19:04;;;;;;;2.58;1.80;;;18.30;99.90;;;;;;5053597;28;20229;-66
2023/09/01 02:21:30;;;;;;;3.65;1.60;;;18.30;99.90;;;;;;5053531;28;20243;-66
2023/09/01 02:23:57;;;;;;;4.30;1.80;;;18.30;99.90;;;;;;5053487;28;20241;-66
2023/09/01 02:26:24;;;;;;;3.90;1.65;;;18.30;99.90;;;;;;5053439;28;20576;-66
2023/09/01 02:28:51;;;;;;;2.15;1.60;;;18.30;99.90;;;;;;5053426;28;20209;-66
2023/09/01 02:31:19;;;;;;;2.40;1.70;;;18.40;99.90;;;;;;5052683;28;20213;-66
2023/09/01 02:33:46;;;;;;;4.43;1.80;;;18.40;99.90;;;;;;5053004;28;20225;-66
2023/09/01 02:36:24;;;;;;;2.30;1.60;;;18.50;99.90;;;;;;5053083;28;20217;-66
2023/09/01 02:38:51;;;;;;;3.65;2.28;;;18.50;99.90;;;;;;5053264;28;20259;-66
2023/09/01 02:41:17;;;;;;;5.72;2.42;;;18.50;99.90;;;;;;5053025;28;20699;-66
2023/09/01 02:43:45;;;;;;;4.13;1.88;;;18.60;99.90;;;;;;5053005;28;20825;-66
2023/09/01 02:46:12;;;;;;;3.15;1.85;;;18.60;99.90;;;;;;5052714;28;20677;-66
2023/09/01 02:48:40;;;;;;;4.88;1.95;;;18.50;99.90;;;;;;5053060;28;20228;-66
2023/09/01 02:51:07;;;;;;;3.50;1.98;;;18.60;99.90;;;;;;5053015;28;20213;-66
2023/09/01 02:53:34;;;;;;;3.25;1.70;;;18.50;99.90;;;;;;5052665;28;20284;-66
2023/09/01 02:56:01;;;;;;;4.47;1.63;;;18.60;99.90;;;;;;5052696;28;20206;-66
2023/09/01 02:58:27;;;;;;;2.70;1.65;;;18.60;99.90;;;;;;5052728;28;20217;-66
2023/09/01 03:00:54;;;;;;;4.75;1.95;;;18.50;99.90;;;;;;5052620;28;20201;-66
2023/09/01 03:03:22;;;;;;;5.43;3.65;;;18.50;99.90;;;;;;5052968;28;20210;-67
2023/09/01 03:05:52;;;;;;;4.70;3.08;;;18.50;99.90;;;;;;5052539;28;20233;-66
2023/09/01 03:08:20;;;;;;;3.03;1.90;;;18.60;99.90;;;;;;5052625;28;20209;-67
2023/09/01 03:10:47;;;;;;;5.28;2.40;;;18.60;99.90;;;;;;5052650;28;20209;-67
2023/09/01 03:13:14;;;;;;;4.88;1.80;;;18.60;99.90;;;;;;5052413;28;20210;-67
2023/09/01 03:15:41;;;;;;;3.67;2.00;;;18.60;99.90;;;;;;5052216;28;20716;-66
2023/09/01 03:18:09;;;;;;;4.28;2.35;;;18.50;99.90;;;;;;5052653;28;20308;-69
2023/09/01 03:20:35;;;;;;;6.25;2.92;;;18.50;99.90;;;;;;5052354;28;20583;-66
2023/09/01 03:23:04;;;;;;;4.63;2.15;;;18.40;99.90;;;;;;5052113;28;20650;-67
2023/09/01 03:25:31;;;;;;;5.32;1.85;;;18.40;99.90;;;;;;5051991;28;20319;-66
2023/09/01 03:27:58;;;;;;;3.03;1.77;;;18.50;99.90;;;;;;5051891;28;20213;-67
2023/09/01 03:30:24;;;;;;;4.70;2.33;;;18.60;99.90;;;;;;5052073;28;20213;-67
2023/09/01 03:32:52;;;;;;;3.97;1.45;;;18.50;99.90;;;;;;5052355;28;20214;-66
2023/09/01 03:35:19;;;;;;;3.78;1.92;;;18.60;99.90;;;;;;5051990;28;20222;-66
2023/09/01 03:37:46;;;;;;;3.00;1.77;;;18.60;99.90;;;;;;5051481;28;20670;-67
2023/09/01 03:40:14;;;;;;;4.68;1.83;;;18.60;99.90;;;;;;5051904;28;20207;-67
2023/09/01 03:42:41;;;;;;;3.10;1.45;;;18.60;99.90;;;;;;5051079;28;20285;-66
2023/09/01 03:45:08;;;;;;;5.63;2.08;;;18.60;99.90;;;;;;5052018;28;20233;-66
2023/09/01 03:47:35;;;;;;;4.35;2.05;;;18.60;99.90;;;;;;5051989;28;20206;-66
2023/09/01 03:50:02;;;;;;;4.43;1.88;;;18.50;99.90;;;;;;5052152;28;20206;-66
2023/09/01 03:52:29;;;;;;;7.57;2.33;;;18.50;99.90;;;;;;5051890;28;20209;-68
2023/09/01 03:54:55;;;;;;;3.30;1.70;;;18.50;99.90;;;;;;5051680;28;20240;-66
2023/09/01 03:57:23;;;;;;;3.75;2.00;;;18.50;99.90;;;;;;5051764;28;20206;-66
2023/09/01 03:59:51;;;;;;;3.10;1.55;;;18.60;99.90;;;;;;5051702;28;20241;-67
2023/09/01 04:02:17;;;;;;;3.90;1.45;;;18.50;99.90;;;;;;5051176;28;20742;-66
2023/09/01 04:04:44;;;;;;;2.30;1.45;;;18.60;99.90;;;;;;5051233;28;20644;-66
2023/09/01 04:07:11;;;;;;;2.72;1.73;;;18.60;99.90;;;;;;5051051;28;20205;-66
2023/09/01 04:09:37;;;;;;;1.70;1.30;;;18.70;99.90;;;;;;5051293;28;20263;-66
2023/09/01 04:12:05;;;;;;;2.83;1.58;;;18.70;99.90;;;;;;5051478;28;20212;-67
2023/09/01 04:14:33;;;;;;;3.85;1.90;;;18.80;99.90;;;;;;5051513;28;20271;-67
2023/09/01 04:17:00;;;;;;;4.25;1.58;;;18.80;99.90;;;;;;5051087;28;20232;-67
2023/09/01 04:19:26;;;;;;;2.75;1.55;;;18.70;99.90;;;;;;5051540;28;20217;-67
2023/09/01 04:21:53;;;;;;;6.13;1.60;;;18.60;99.90;;;;;;5051101;28;20218;-67
2023/09/01 04:24:20;;;;;;;1.77;1.50;;;18.70;99.90;;;;;;5050684;28;20233;-66
2023/09/01 04:26:46;;;;;;;5.93;1.70;;;18.70;99.90;;;;;;5051088;28;20206;-66
2023/09/01 04:29:14;;;;;;;2.60;1.70;;;18.80;99.90;;;;;;5051227;28;20683;-66
2023/09/01 04:31:42;;;;;;;4.80;1.80;;;18.80;99.90;;;;;;5051033;28;20201;-66
2023/09/01 04:34:09;;;;;;;7.80;1.45;;;18.80;99.90;;;;;;5050730;28;20256;-66
2023/09/01 04:36:36;;;;;;;2.65;1.38;;;18.70;99.90;;;;;;5050722;28;20630;-66
2023/09/01 04:39:04;;;;;;;3.30;1.50;;;18.80;99.90;;;;;;5050969;28;20215;-66
2023/09/01 04:41:31;;;;;;;4.10;1.98;;;18.80;99.90;;;;;;5051178;28;20232;-66
2023/09/01 04:43:58;;;;;;;3.88;1.50;;;18.80;99.90;;;;;;5051027;28;20298;-67
2023/09/01 04:46:25;;;;;;;3.53;1.50;;;18.80;99.90;;;;;;5050669;28;20226;-67
2023/09/01 04:48:53;;;;;;;2.97;1.75;;;18.80;99.90;;;;;;5050865;28;20213;-67
2023/09/01 04:51:21;;;;;;;2.55;1.45;;;18.80;99.90;;;;;;5051180;28;20278;-67
2023/09/01 04:53:49;;;;;;;2.80;1.20;;;18.80;99.90;;;;;;5050733;28;20606;-67
2023/09/01 04:56:15;;;;;;;3.88;1.70;;;18.70;99.90;;;;;;5055073;28;20205;-65
2023/09/01 04:58:42;;;;;;;4.80;2.50;;;18.70;99.90;;;;;;5055270;28;20307;-66
2023/09/01 05:01:09;;;;;;;2.78;1.35;;;18.60;99.90;;;;;;5054996;28;20205;-66
2023/09/01 05:03:36;;;;;;;1.88;1.17;;;18.50;99.90;;;;;;5054952;28;20389;-67
2023/09/01 05:06:04;;;;;;;2.65;1.30;;;18.50;99.90;;;;;;5054416;28;20217;-66
2023/09/01 05:08:30;;;;;;;2.70;1.40;;;18.60;99.90;;;;;;5054902;28;20212;-66
2023/09/01 05:10:57;;;;;;;5.20;1.38;;;18.70;99.90;;;;;;5054691;28;20213;-66
2023/09/01 05:13:26;;;;;;;6.85;3.95;;;18.80;99.90;;;;;;5054580;28;20218;-65
2023/09/01 05:15:52;;;;;;;3.50;1.35;;;18.80;99.90;;;;;;5054348;28;20201;-66
2023/09/01 05:18:19;;;;;;;3.15;1.48;;;19.00;99.90;;;;;;5054852;28;20205;-67
2023/09/01 05:20:47;;;;;;;5.35;1.60;;;19.00;99.90;;;;;;5054582;28;20757;-66
2023/09/01 05:23:16;;;;;;;6.90;1.50;;;19.00;99.90;;;;;;5054429;28;20240;-66
2023/09/01 05:25:42;;;;;;;3.33;1.45;;;19.00;99.90;;;;;;5054146;28;20240;-66
2023/09/01 05:28:09;;;;;;;5.43;1.60;;;19.00;99.90;;;;;;5054419;28;20665;-66
2023/09/01 05:30:37;;;;;;;1.98;1.42;;;19.00;99.90;;;;;;5054597;28;20201;-66
2023/09/01 05:33:04;;;;;;;3.65;1.95;;;19.20;99.90;;;;;;5054261;28;20689;-67
2023/09/01 05:35:31;;;;;;;3.35;1.23;;;19.30;99.90;;;;;;5054408;28;20232;-66
2023/09/01 05:37:58;;;;;;;4.65;1.25;;;19.30;99.90;;;;;;5054332;28;20239;-66
2023/09/01 05:40:26;;;;;;;4.60;1.38;;;19.50;99.90;;;;;;5054273;28;20213;-66
2023/09/01 05:42:53;;;;;;;5.78;1.35;;;19.30;99.90;;;;;;5054272;28;20661;-66
2023/09/01 05:45:19;;;;;;;3.33;1.35;;;19.30;99.90;;;;;;5053889;28;20280;-66
2023/09/01 05:47:46;;;;;;;3.67;1.70;;;19.30;99.90;;;;;;5053601;28;20212;-67
2023/09/01 05:50:13;;;;;;;3.90;1.60;;;19.40;99.90;;;;;;5053996;28;20205;-67
2023/09/01 05:52:40;;;;;;;5.00;1.50;;;19.40;99.90;;;;;;5054122;28;20672;-67
2023/09/01 05:55:07;;;;;;;2.00;1.42;;;19.40;99.90;;;;;;5053810;28;20238;-65
2023/09/01 05:57:35;;;;;;;4.80;1.30;;;19.50;99.90;;;;;;5053785;28;20209;-65
2023/09/01 06:00:03;;;;;;;5.30;1.67;;;19.40;99.90;;;;;;5054110;28;20242;-65
2023/09/01 06:02:30;;;;;;;2.47;1.60;;;19.50;99.90;;;;;;5054052;28;20300;-66
2023/09/01 06:04:56;;;;;;;6.15;1.70;;;19.60;99.90;;;;;;5053645;28;20267;-66
2023/09/01 06:07:23;;;;;;;6.22;2.05;;;19.50;99.90;;;;;;5052638;28;20216;-65
2023/09/01 06:09:50;;;;;;;3.25;1.15;;;19.50;99.90;;;;;;5053443;28;20684;-65
2023/09/01 06:12:16;;;;;;;3.65;1.40;;;19.40;99.90;;;;;;5053406;28;20662;-65
2023/09/01 06:14:44;;;;;;;2.03;1.30;;;19.40;99.90;;;;;;5053414;28;20229;-66
2023/09/01 06:17:11;;;;;;;5.93;1.73;;;19.30;99.90;;;;;;5053595;28;20209;-66
2023/09/01 06:19:38;;;;;;;1.85;1.20;;;19.30;99.90;;;;;;5053470;28;20664;-66
2023/09/01 06:22:04;;;;;;;2.67;1.50;;;19.30;99.90;;;;;;5053741;28;20210;-66
2023/09/01 06:24:31;;;;;;;1.80;1.13;;;19.20;99.90;;;;;;5053182;28;20222;-66
2023/09/01 06:26:58;;;;;;;4.50;1.42;;;19.20;99.90;;;;;;5053059;28;20240;-67
2023/09/01 06:29:25;;;;;;;3.67;1.58;;;19.20;99.90;;;;;;5053589;28;20210;-67
2023/09/01 06:31:53;;;;;;;2.22;1.08;;;19.20;99.90;;;;;;5053583;28;20224;-66
2023/09/01 06:34:20;;;;;;;3.22;1.25;;;19.20;99.90;;;;;;5053476;28;20225;-67
2023/09/01 06:36:47;;;;;;;1.98;1.40;;;19.30;99.90;;;;;;5053007;28;20205;-67
2023/09/01 06:39:16;;;;;;;3.40;1.38;;;19.40;99.90;;;;;;5052827;28;20700;-67
2023/09/01 06:41:42;;;;;;;2.55;1.13;;;19.40;99.90;;;;;;5053180;28;20259;-66
2023/09/01 06:44:09;;;;;;;5.53;1.40;;;19.30;99.90;;;;;;5053432;28;20229;-65
2023/09/01 06:46:36;;;;;;;2.13;1.40;;;19.30;99.90;;;;;;5052929;28;20233;-67
2023/09/01 06:49:04;;;;;;;2.72;1.10;;;19.30;99.90;;;;;;5053065;28;20553;-66
2023/09/01 06:51:31;;;;;;;2.75;1.63;;;19.20;99.90;;;;;;5053046;28;20229;-66
2023/09/01 06:53:57;;;;;;;4.60;2.10;;;19.20;99.90;;;;;;5052654;28;20254;-67
2023/09/01 06:56:24;;;;;;;3.08;1.42;;;19.20;99.90;;;;;;5052506;28;20198;-67
2023/09/01 06:58:51;;;;;;;2.10;1.45;;;19.30;99.90;;;;;;5053019;28;20235;-66
2023/09/01 07:01:17;;;;;;;3.00;1.20;;;19.30;99.90;;;;;;5052889;28;20669;-66
2023/09/01 07:03:44;;;;;;;3.92;1.50;;;19.30;99.90;;;;;;5052764;28;20261;-66
2023/09/01 07:06:12;;;;;;;3.50;1.80;;;19.40;99.90;;;;;;5052421;28;20222;-66
2023/09/01 07:08:39;;;;;;;3.47;1.70;;;19.50;99.90;;;;;;5052614;28;20394;-66
2023/09/01 07:11:09;;;;;;;3.83;1.38;;;19.60;99.90;;;;;;5052523;28;20220;-66
2023/09/01 07:13:36;;;;;;;5.45;1.80;;;19.80;99.90;;;;;;5052479;28;20768;-66
2023/09/01 07:16:03;;;;;;;8.15;2.30;;;19.90;99.90;;;;;;5052655;28;20293;-66
2023/09/01 07:18:30;;;;;;;4.10;1.52;;;19.90;99.90;;;;;;5052235;28;20213;-66
2023/09/01 07:20:58;;;;;;;2.58;1.48;;;19.90;99.90;;;;;;5052781;28;20237;-66
2023/09/01 07:23:26;;;;;;;5.68;1.40;;;19.90;99.90;;;;;;5052186;28;20229;-67
2023/09/01 07:25:54;;;;;;;3.25;1.35;;;19.90;99.90;;;;;;5052165;28;20225;-66
2023/09/01 07:28:21;;;;;;;4.00;1.40;;;20.00;99.90;;;;;;5052361;28;20247;-67
2023/09/01 07:30:48;;;;;;;2.42;1.10;;;20.10;99.90;;;;;;5052033;28;20209;-66
2023/09/01 07:33:15;;;;;;;2.00;1.30;;;20.20;99.90;;;;;;5052059;28;20252;-66
2023/09/01 07:35:46;;;;;;;1.60;0.93;;;20.40;99.90;;;;;;5051560;28;20218;-66
2023/09/01 07:38:12;;;;;;;3.65;0.85;;;20.50;99.90;;;;;;5052186;28;20656;-66
2023/09/01 07:40:41;;;;;;;2.42;1.25;;;20.50;99.90;;;;;;5052073;28;20236;-67
2023/09/01 07:43:08;;;;;;;4.15;1.25;;;20.50;99.90;;;;;;5051891;28;20281;-66
2023/09/01 07:45:34;;;;;;;6.15;1.27;;;20.50;99.90;;;;;;5051603;28;20236;-66
2023/09/01 07:48:02;;;;;;;3.65;1.13;;;20.40;99.90;;;;;;5051552;28;20206;-67
2023/09/01 07:50:30;;;;;;;2.75;1.15;;;20.20;99.90;;;;;;5051709;28;20596;-67
2023/09/01 07:52:57;;;;;;;2.20;1.10;;;20.10;99.90;;;;;;5051843;28;20287;-67
2023/09/01 07:55:23;;;;;;;1.30;0.80;;;19.90;99.90;;;;;;5052172;28;20237;-67
2023/09/01 07:57:51;;;;;;;2.13;1.10;;;19.80;99.90;;;;;;5051410;28;20209;-68
2023/09/01 08:00:18;;;;;;;2.25;0.90;;;19.80;99.90;;;;;;5051611;28;20217;-67
2023/09/01 08:02:46;;;;;;;2.17;1.05;;;19.90;99.90;;;;;;5051321;28;20252;-65
2023/09/01 08:05:13;;;;;;;2.08;0.93;;;20.00;99.90;;;;;;5051864;28;20229;-65
2023/09/01 08:07:40;;;;;;;1.45;0.90;;;20.20;99.90;;;;;;5052002;28;20216;-65
2023/09/01 08:10:09;;;;;;;1.67;0.80;;;20.40;99.90;;;;;;5051775;28;20339;-66
2023/09/01 08:12:36;;;;;;;1.67;1.05;;;20.70;99.90;;;;;;5052037;28;20228;-65
2023/09/01 08:15:04;;;;;;;2.70;1.42;;;20.90;99.90;;;;;;5051623;28;20222;-65
2023/09/01 08:17:33;;;;;;;2.92;1.10;;;21.10;99.90;;;;;;5051098;28;20213;-67
2023/09/01 08:20:00;;;;;;;1.10;0.90;;;21.30;99.90;;;;;;5051700;28;20217;-66
2023/09/01 08:22:26;;;;;;;2.05;1.13;;;21.60;99.90;;;;;;5051179;28;20212;-65
2023/09/01 08:24:53;;;;;;;1.13;0.77;;;21.90;99.90;;;;;;5051157;28;20681;-66
2023/09/01 08:27:20;;;;;;;1.35;0.98;;;22.10;99.90;;;;;;5050874;28;20276;-66
2023/09/01 08:29:46;;;;;;;8.65;6.22;;;22.30;99.90;;;;;;5050713;28;20212;-66
2023/09/01 08:32:14;;;;;;;2.58;1.25;;;22.30;99.90;;;;;;5051108;28;20229;-65
2023/09/01 08:34:42;;;;;;;9.75;7.75;;;22.40;99.90;;;;;;5051372;28;20230;-65
2023/09/01 08:37:10;;;;;;;0.95;0.85;;;22.50;99.90;;;;;;5051110;28;20205;-65
2023/09/01 08:39:37;;;;;;;3.10;1.25;;;22.70;99.90;;;;;;5050999;28;20233;-65
2023/09/01 08:42:05;;;;;;;3.53;1.08;;;23.10;99.90;;;;;;5050853;28;20220;-65
2023/09/01 08:44:35;;;;;;;3.67;0.80;;;23.20;99.90;;;;;;5051047;28;20578;-65
2023/09/01 08:47:02;;;;;;;1.52;1.20;;;23.30;99.90;;;;;;5050901;28;20228;-64
2023/09/01 08:49:30;;;;;;;1.13;0.90;;;23.70;99.90;;;;;;5052382;28;20210;-66
2023/09/01 08:51:58;;;;;;;4.38;1.05;;;24.00;99.90;;;;;;5051535;28;20216;-64
2023/09/01 08:54:26;;;;;;;2.00;0.80;;;24.50;99.90;;;;;;5050661;28;20237;-63
2023/09/01 08:56:53;;;;;;;2.00;0.90;;;24.90;99.90;;;;;;5050673;28;20206;-64
2023/09/01 08:59:20;;;;;;;2.58;1.52;;;25.20;99.90;;;;;;5050725;28;20205;-64
2023/09/01 09:01:48;;;;;;;1.98;0.90;;;25.50;99.90;;;;;;5050664;28;20233;-64
2023/09/01 09:04:15;;;;;;;1.65;1.05;;;25.70;99.90;;;;;;5050624;28;20256;-62
2023/09/01 09:06:43;;;;;;;1.48;0.90;;;25.70;99.90;;;;;;5050383;28;20225;-62
2023/09/01 09:09:13;;;;;;;1.17;0.80;;;25.80;99.90;;;;;;5050453;28;20233;-63
2023/09/01 09:11:41;;;;;;;0.90;0.60;;;26.00;99.90;;;;;;5050309;28;20235;-62
2023/09/01 09:14:08;;;;;;;2.78;1.00;;;26.10;99.90;;;;;;5050070;28;20659;-63
2023/09/01 09:16:36;;;;;;;0.77;0.77;;;26.30;99.90;;;;;;5050270;28;20275;-66
2023/09/01 09:19:09;;;;;;;2.13;0.90;;;26.30;99.90;;;;;;5050405;28;20206;-65
2023/09/01 09:21:36;;;;;;;1.33;0.88;;;26.30;99.90;;;;;;5050339;28;20655;-65
2023/09/01 09:24:05;;;;;;;1.90;1.08;;;26.10;99.90;;;;;;5050027;28;20233;-66
2023/09/01 09:26:33;;;;;;;0.75;0.73;;;25.80;99.90;;;;;;5049558;28;20244;-65
2023/09/01 09:29:06;;;;;;;0.57;0.45;;;25.50;99.90;;;;;;5050076;28;20209;-65
2023/09/01 09:31:36;;;;;;;1.60;0.80;;;25.50;99.90;;;;;;5050066;28;20209;-65
2023/09/01 09:34:15;;;;;;;1.23;0.70;;;25.40;99.90;;;;;;5049949;28;20241;-65
2023/09/01 09:36:41;;;;;;;1.25;0.82;;;25.30;99.90;;;;;;5049426;28;20237;-65
2023/09/01 09:39:21;;;;;;;1.95;0.80;;;25.20;99.90;;;;;;5049799;28;20240;-65
2023/09/01 09:41:48;;;;;;;2.63;0.82;;;25.30;99.90;;;;;;5051419;28;20244;-65
2023/09/01 09:44:23;;;;;;;3.10;1.52;;;25.50;99.90;;;;;;5053603;28;20498;-65
2023/09/01 09:46:50;;;;;;;8.38;5.38;;;25.80;99.90;;;;;;5053203;28;20339;-64
2023/09/01 09:49:16;;;;;;;7.22;4.43;;;26.00;99.90;;;;;;5053595;28;20665;-64
2023/09/01 09:51:43;;;;;;;4.30;1.98;;;26.40;99.90;;;;;;5053565;28;20240;-64
2023/09/01 09:54:12;;;;;;;1.17;0.90;;;26.80;99.90;;;;;;5053160;28;20338;-63
2023/09/01 09:56:41;;;;;;;2.33;1.00;;;27.10;99.90;;;;;;5053367;28;20589;-64
2023/09/01 09:59:11;;;;;;;1.40;0.80;;;27.10;99.90;;;;;;5053293;28;20209;-64
2023/09/01 10:01:40;;;;;;;1.83;0.88;;;27.20;99.90;;;;;;5053327;28;20229;-64
2023/09/01 10:04:07;;;;;;;3.80;1.00;;;27.30;99.90;;;;;;5053006;28;20638;-64
2023/09/01 10:06:35;;;;;;;2.45;0.80;;;27.60;99.90;;;;;;5053049;28;20226;-64
2023/09/01 10:09:04;;;;;;;2.17;0.80;;;27.60;99.90;;;;;;5052971;28;20305;-64
2023/09/01 10:11:32;;;;;;;4.55;1.02;;;27.60;99.90;;;;;;5052971;28;20315;-64
2023/09/01 10:14:01;;;;;;;2.00;0.70;;;27.60;99.90;;;;;;5052673;28;20236;-64
2023/09/01 10:16:28;;;;;;;2.17;0.80;;;27.60;99.90;;;;;;5052749;28;20296;-65
2023/09/01 10:18:56;;;;;;;1.70;0.88;;;27.60;99.90;;;;;;5053167;28;20228;-65
2023/09/01 10:21:23;;;;;;;1.77;1.00;;;27.60;99.90;;;;;;5053393;28;20202;-65
2023/09/01 10:23:50;;;;;;;1.58;1.10;;;27.50;99.90;;;;;;5053039;28;20713;-66
2023/09/01 10:26:24;;;;;;;1.67;1.02;;;27.40;99.90;;;;;;5052639;28;20232;-66
2023/09/01 10:28:57;;;;;;;2.85;0.80;;;27.30;99.90;;;;;;5052680;28;20254;-66
2023/09/01 10:31:24;;;;;;;3.72;1.15;;;27.10;99.90;;;;;;5052604;28;20684;-66
2023/09/01 10:34:13;;;;;;;2.78;1.00;;;26.90;99.90;;;;;;5052800;28;20305;-65
2023/09/01 10:36:41;;;;;;;3.28;1.10;;;26.80;99.90;;;;;;5052301;28;20576;-65
2023/09/01 10:39:22;;;;;;;3.08;1.00;;;26.80;99.90;;;;;;5052542;28;20228;-66
2023/09/01 10:41:53;;;;;;;2.55;0.80;;;26.80;99.90;;;;;;5052301;28;20278;-65
2023/09/01 10:44:22;;;;;;;3.10;1.08;;;26.70;99.90;;;;;;5052306;28;20316;-65
2023/09/01 10:46:49;;;;;;;2.60;1.15;;;26.60;99.90;;;;;;5051834;28;20275;-67
2023/09/01 10:49:16;;;;;;;3.97;2.50;;;26.60;99.90;;;;;;5052185;28;20267;-65
2023/09/01 10:51:43;;;;;;;15.35;13.82;;;26.60;99.90;;;;;;5051946;28;20205;-66
2023/09/01 10:54:39;;;;;;;6.30;5.70;;;26.70;99.90;;;;;;5052070;28;20268;-66
2023/09/01 10:57:13;;;;;;;9.45;7.43;;;26.80;99.90;;;;;;5043219;28;20201;-67
2023/09/01 10:59:41;;;;;;;1.67;1.20;;;27.00;99.90;;;;;;5052152;28;20378;-66
2023/09/01 11:02:21;;;;;;;2.17;1.35;;;27.10;99.90;;;;;;5052001;28;20209;-66
2023/09/01 11:04:48;;;;;;;1.58;1.33;;;27.20;99.90;;;;;;5052012;28;20229;-66
2023/09/01 11:07:15;;;;;;;3.35;1.83;;;27.30;99.90;;;;;;5051771;28;20229;-65
2023/09/01 11:09:55;;;;;;;2.92;1.50;;;27.30;99.90;;;;;;5051886;28;20205;-66
2023/09/01 11:12:29;;;;;;;4.88;1.73;;;27.30;99.90;;;;;;5052206;28;20610;-66
2023/09/01 11:14:59;;;;;;;3.45;1.08;;;27.40;99.90;;;;;;5051894;28;20253;-66
2023/09/01 11:17:41;;;;;;;3.92;0.88;;;27.40;99.90;;;;;;5051747;28;20240;-66
2023/09/01 11:20:09;;;;;;;4.53;0.93;;;27.60;99.90;;;;;;5051883;28;20641;-66
2023/09/01 11:22:41;;;;;;;1.65;1.10;;;27.70;99.90;;;;;;5051712;28;20279;-66
2023/09/01 11:25:13;;;;;;;7.72;1.83;;;27.80;99.90;;;;;;5051362;28;20237;-66
2023/09/01 11:27:45;;;;;;;2.90;1.02;;;27.90;99.90;;;;;;5051095;28;20650;-66
2023/09/01 11:30:14;;;;;;;1.70;1.02;;;27.80;99.90;;;;;;5051691;28;20224;-66
2023/09/01 11:32:40;;;;;;;1.65;0.80;;;27.70;99.90;;;;;;5051586;28;20201;-66
2023/09/01 11:35:09;;;;;;;2.42;1.00;;;27.70;99.90;;;;;;5051457;28;20238;-65
2023/09/01 11:37:40;;;;;;;2.70;0.98;;;27.70;99.90;;;;;;5051080;28;20285;-64
2023/09/01 11:40:09;;;;;;;1.38;0.88;;;27.70;99.90;;;;;;5051273;28;20206;-64
2023/09/01 11:42:38;;;;;;;1.92;1.17;;;27.80;99.90;;;;;;5051459;28;20677;-64
2023/09/01 11:45:07;;;;;;;1.45;0.95;;;28.10;99.90;;;;;;5051770;28;20226;-66
2023/09/01 11:47:35;;;;;;;3.95;1.52;;;28.20;99.90;;;;;;5051642;28;20638;-66
2023/09/01 11:50:03;;;;;;;7.28;1.58;;;28.50;99.90;;;;;;5051841;28;20209;-66
2023/09/01 11:52:29;;;;;;;3.72;1.58;;;28.70;99.90;;;;;;5051915;28;20216;-66
2023/09/01 11:54:57;;;;;;;1.10;0.90;;;28.80;99.90;;;;;;5051238;28;20233;-66
2023/09/01 11:57:24;;;;;;;1.10;0.88;;;28.70;99.90;;;;;;5051642;28;20236;-65
2023/09/01 11:59:51;;;;;;;1.25;1.00;;;28.50;99.90;;;;;;5051635;28;20235;-66
2023/09/01 12:02:19;;;;;;;2.30;1.33;;;28.40;99.90;;;;;;5051680;28;20636;-66
2023/09/01 12:04:49;;;;;;;3.42;1.20;;;28.20;99.90;;;;;;5050397;28;20222;-67
2023/09/01 12:07:25;;;;;;;1.75;0.90;;;28.20;99.90;;;;;;5051206;28;20226;-66
2023/09/01 12:09:53;;;;;;;3.90;1.17;;;28.10;99.90;;;;;;5051635;28;20248;-66
2023/09/01 12:12:20;;;;;;;5.47;1.70;;;28.20;99.90;;;;;;5051279;28;20587;-66
2023/09/01 12:14:47;;;;;;;2.08;1.05;;;28.40;99.90;;;;;;5051191;28;20222;-67
2023/09/01 12:17:18;;;;;;;1.58;1.00;;;28.40;99.90;;;;;;5051019;28;20202;-67
2023/09/01 12:19:48;;;;;;;1.63;1.00;;;28.30;99.90;;;;;;5051411;28;20216;-67
2023/09/01 12:22:15;;;;;;;2.42;1.15;;;28.10;99.90;;;;;;5051336;28;20263;-67
2023/09/01 12:24:50;;;;;;;3.83;1.15;;;27.90;99.90;;;;;;5051477;28;20265;-66
2023/09/01 12:27:17;;;;;;;7.60;3.55;;;27.80;99.90;;;;;;5050727;28;20224;-66
2023/09/01 12:29:44;;;;;;;1.63;1.10;;;27.70;99.90;;;;;;5050827;28;20206;-67
2023/09/01 12:32:11;;;;;;;2.13;1.10;;;27.70;99.90;;;;;;5051288;28;20210;-66
2023/09/01 12:34:38;;;;;;;8.38;1.10;;;27.70;99.90;;;;;;5050935;28;20251;-66
2023/09/01 12:37:07;;;;;;;2.88;1.30;;;27.60;99.90;;;;;;5051003;28;20197;-66
2023/09/01 12:39:33;;;;;;;2.40;1.35;;;27.40;99.90;;;;;;5051101;28;20237;-66
2023/09/01 12:42:00;;;;;;;2.10;0.88;;;27.30;99.90;;;;;;5051350;28;20662;-66
2023/09/01 12:44:28;;;;;;;1.60;1.00;;;27.20;99.90;;;;;;5050884;28;20233;-66
2023/09/01 12:46:55;;;;;;;4.75;1.00;;;27.30;99.90;;;;;;5050855;28;20649;-66
2023/09/01 12:49:22;;;;;;;3.53;1.15;;;27.50;99.90;;;;;;5051033;28;20209;-66